PWSweather.com
Personal Weather Stations
Station Observations
METEOC500
Santo Antonio, FunchalPT 2020

Santo AntonioFunchalPT 2020

Lat: 32.678227, Lon: -16.945054

Elevation: 1669.94751

Station Type: WH Series

High Low Average
Temperature 68.5°F20.3°C 62.6°F17.0°C 65.5°F18.6°C
Dew Point 66.4°F19.1°C 56.7°F13.7°C 62.6°F17.0°C
Winds 6.5 mph 10.5 kmh Calm Calm 2.0 mph WSW3.2 kmh WSW
Wind Gusts 10.1 mph16.3 kmh -- 6.0 mph9.7 kmh
Humidity 97% 81% 90%
Pressure 30.24 in1024.0 mb 30.14 in1020.7 mb -
Precipitation 0.12 in3.0 mm - -
Hour Temp Dew Point Humidity Winds Wind Gusts Pressure Precip Precip Rate Daily Precip Total
12:08 AM 62.6°F17.0°C 58.1°F14.5°C 85% 3.1 mph NNW5.0 kmh NNW 7.6 mph12.2 kmh 30.24 in1024.0 mb 0.00 in0.0 mm 0.00 in0.0 mm 0.00 in0.0 mm
12:23 AM 62.8°F17.1°C 58.3°F14.6°C 85% 3.8 mph NNW6.1 kmh NNW 10.1 mph16.3 kmh 30.24 in1024.0 mb 0.00 in0.0 mm 0.00 in0.0 mm 0.00 in0.0 mm
12:38 AM 63.0°F17.2°C 58.1°F14.5°C 84% 5.4 mph NNW8.7 kmh NNW 7.6 mph12.2 kmh 30.24 in1024.0 mb 0.00 in0.0 mm 0.00 in0.0 mm 0.00 in0.0 mm
12:53 AM 62.8°F17.1°C 57.9°F14.4°C 84% 3.8 mph NNW6.1 kmh NNW 7.6 mph12.2 kmh 30.23 in1023.7 mb 0.00 in0.0 mm 0.00 in0.0 mm 0.00 in0.0 mm
01:08 AM 62.8°F17.1°C 58.5°F14.7°C 86% 2.5 mph NW4.0 kmh NW 4.9 mph7.9 kmh 30.22 in1023.4 mb 0.00 in0.0 mm 0.00 in0.0 mm 0.00 in0.0 mm
01:23 AM 62.8°F17.1°C 58.5°F14.7°C 86% 3.1 mph NW5.0 kmh NW 7.6 mph12.2 kmh 30.22 in1023.4 mb 0.00 in0.0 mm 0.00 in0.0 mm 0.00 in0.0 mm
01:38 AM 62.6°F17.0°C 57.4°F14.1°C 83% 1.6 mph NNW2.6 kmh NNW 10.1 mph16.3 kmh 30.21 in1023.0 mb 0.00 in0.0 mm 0.00 in0.0 mm 0.00 in0.0 mm
01:53 AM 62.6°F17.0°C 58.1°F14.5°C 85% 4.5 mph NW7.2 kmh NW 7.6 mph12.2 kmh 30.21 in1023.0 mb 0.00 in0.0 mm 0.00 in0.0 mm 0.00 in0.0 mm
02:08 AM 63.0°F17.2°C 58.6°F14.8°C 86% 2.5 mph NNW4.0 kmh NNW 4.9 mph7.9 kmh 30.22 in1023.4 mb 0.00 in0.0 mm 0.00 in0.0 mm 0.00 in0.0 mm
02:23 AM 63.1°F17.3°C 59.2°F15.1°C 87% 2.9 mph NNW4.7 kmh NNW 7.6 mph12.2 kmh 30.21 in1023.0 mb 0.00 in0.0 mm 0.00 in0.0 mm 0.00 in0.0 mm
02:38 AM 63.0°F17.2°C 58.5°F14.7°C 85% 4.7 mph NNW7.6 kmh NNW 7.6 mph12.2 kmh 30.20 in1022.7 mb 0.00 in0.0 mm 0.00 in0.0 mm 0.00 in0.0 mm
02:53 AM 62.6°F17.0°C 56.7°F13.7°C 81% 1.6 mph N2.6 kmh N 7.6 mph12.2 kmh 30.20 in1022.7 mb 0.00 in0.0 mm 0.00 in0.0 mm 0.00 in0.0 mm
03:09 AM 63.1°F17.3°C 57.2°F14.0°C 81% 2.2 mph NNW3.5 kmh NNW 4.9 mph7.9 kmh 30.20 in1022.7 mb 0.00 in0.0 mm 0.00 in0.0 mm 0.00 in0.0 mm
03:24 AM 63.5°F17.5°C 57.6°F14.2°C 81% 1.3 mph NW2.1 kmh NW 7.6 mph12.2 kmh 30.19 in1022.4 mb 0.00 in0.0 mm 0.00 in0.0 mm 0.00 in0.0 mm
03:39 AM 64.0°F17.8°C 58.1°F14.5°C 81% 2.5 mph N4.0 kmh N 4.9 mph7.9 kmh 30.20 in1022.7 mb 0.00 in0.0 mm 0.00 in0.0 mm 0.00 in0.0 mm
03:54 AM 64.2°F17.9°C 58.3°F14.6°C 81% 1.8 mph NNW2.9 kmh NNW 4.9 mph7.9 kmh 30.20 in1022.7 mb 0.00 in0.0 mm 0.00 in0.0 mm 0.00 in0.0 mm
04:09 AM 64.4°F18.0°C 58.8°F14.9°C 82% 2.9 mph N4.7 kmh N 7.6 mph12.2 kmh 30.19 in1022.4 mb 0.00 in0.0 mm 0.00 in0.0 mm 0.00 in0.0 mm
04:24 AM 64.2°F17.9°C 59.0°F15.0°C 83% 4.0 mph NNW6.4 kmh NNW 7.6 mph12.2 kmh 30.19 in1022.4 mb 0.00 in0.0 mm 0.00 in0.0 mm 0.00 in0.0 mm
04:39 AM 63.9°F17.7°C 58.6°F14.8°C 83% 4.9 mph NNW7.9 kmh NNW 7.6 mph12.2 kmh 30.19 in1022.4 mb 0.00 in0.0 mm 0.00 in0.0 mm 0.00 in0.0 mm
04:54 AM 63.9°F17.7°C 57.9°F14.4°C 81% 6.5 mph NNW10.5 kmh NNW 7.6 mph12.2 kmh 30.19 in1022.4 mb 0.00 in0.0 mm 0.00 in0.0 mm 0.00 in0.0 mm
05:09 AM 64.4°F18.0°C 58.5°F14.7°C 81% 4.7 mph NNW7.6 kmh NNW 7.6 mph12.2 kmh 30.19 in1022.4 mb 0.00 in0.0 mm 0.00 in0.0 mm 0.00 in0.0 mm
05:24 AM 64.6°F18.1°C 59.7°F15.4°C 84% 4.5 mph NNW7.2 kmh NNW 7.6 mph12.2 kmh 30.19 in1022.4 mb 0.00 in0.0 mm 0.00 in0.0 mm 0.00 in0.0 mm
05:39 AM 64.2°F17.9°C 59.0°F15.0°C 83% 3.8 mph NW6.1 kmh NW 7.6 mph12.2 kmh 30.19 in1022.4 mb 0.00 in0.0 mm 0.00 in0.0 mm 0.00 in0.0 mm
05:54 AM 64.2°F17.9°C 59.0°F15.0°C 83% 4.0 mph NNW6.4 kmh NNW 7.6 mph12.2 kmh 30.19 in1022.4 mb 0.00 in0.0 mm 0.00 in0.0 mm 0.00 in0.0 mm
06:09 AM 64.4°F18.0°C 59.2°F15.1°C 83% 4.0 mph NNW6.4 kmh NNW 10.1 mph16.3 kmh 30.19 in1022.4 mb 0.00 in0.0 mm 0.00 in0.0 mm 0.00 in0.0 mm
06:24 AM 64.2°F17.9°C 59.5°F15.3°C 85% 3.1 mph NNW5.0 kmh NNW 4.9 mph7.9 kmh 30.20 in1022.7 mb 0.00 in0.0 mm 0.00 in0.0 mm 0.00 in0.0 mm
06:39 AM 64.4°F18.0°C 60.1°F15.6°C 86% 3.4 mph NNW5.5 kmh NNW 7.6 mph12.2 kmh 30.20 in1022.7 mb 0.00 in0.0 mm 0.00 in0.0 mm 0.00 in0.0 mm
06:54 AM 64.4°F18.0°C 60.1°F15.6°C 86% 2.9 mph NNW4.7 kmh NNW 7.6 mph12.2 kmh 30.21 in1023.0 mb 0.00 in0.0 mm 0.00 in0.0 mm 0.00 in0.0 mm
07:09 AM 64.2°F17.9°C 60.6°F15.9°C 88% 1.8 mph NW2.9 kmh NW 7.6 mph12.2 kmh 30.21 in1023.0 mb 0.00 in0.0 mm 0.00 in0.0 mm 0.00 in0.0 mm
07:24 AM 64.2°F17.9°C 61.0°F16.1°C 89% 3.4 mph N5.5 kmh N 7.6 mph12.2 kmh 30.21 in1023.0 mb 0.00 in0.0 mm 0.00 in0.0 mm 0.00 in0.0 mm
07:39 AM 64.4°F18.0°C 61.2°F16.2°C 89% 2.9 mph NNW4.7 kmh NNW 7.6 mph12.2 kmh 30.21 in1023.0 mb 0.00 in0.0 mm 0.00 in0.0 mm 0.00 in0.0 mm
07:55 AM 64.4°F18.0°C 61.3°F16.3°C 90% 0.7 mph NNW1.1 kmh NNW 7.6 mph12.2 kmh 30.21 in1023.0 mb 0.00 in0.0 mm 0.00 in0.0 mm 0.00 in0.0 mm
08:10 AM 64.8°F18.2°C 61.7°F16.5°C 90% 2.2 mph NW3.5 kmh NW 4.9 mph7.9 kmh 30.21 in1023.0 mb 0.00 in0.0 mm 0.00 in0.0 mm 0.00 in0.0 mm
08:25 AM 65.7°F18.7°C 62.2°F16.8°C 89% Calm Calm 4.9 mph7.9 kmh 30.22 in1023.4 mb 0.00 in0.0 mm 0.00 in0.0 mm 0.00 in0.0 mm
08:40 AM 66.6°F19.2°C 63.0°F17.2°C 88% Calm Calm 4.9 mph7.9 kmh 30.22 in1023.4 mb 0.00 in0.0 mm 0.00 in0.0 mm 0.00 in0.0 mm
08:55 AM 67.1°F19.5°C 63.7°F17.6°C 89% Calm Calm 2.5 mph4.0 kmh 30.22 in1023.4 mb 0.00 in0.0 mm 0.00 in0.0 mm 0.00 in0.0 mm
09:10 AM 67.3°F19.6°C 63.9°F17.7°C 89% Calm Calm 4.9 mph7.9 kmh 30.22 in1023.4 mb 0.00 in0.0 mm 0.00 in0.0 mm 0.00 in0.0 mm
09:25 AM 67.3°F19.6°C 64.2°F17.9°C 90% 2.9 mph N4.7 kmh N 4.9 mph7.9 kmh 30.22 in1023.4 mb 0.00 in0.0 mm 0.00 in0.0 mm 0.00 in0.0 mm
09:40 AM 67.3°F19.6°C 64.2°F17.9°C 90% Calm Calm 4.9 mph7.9 kmh 30.23 in1023.7 mb 0.00 in0.0 mm 0.00 in0.0 mm 0.00 in0.0 mm
09:55 AM 67.5°F19.7°C 64.4°F18.0°C 90% Calm Calm 4.9 mph7.9 kmh 30.23 in1023.7 mb 0.00 in0.0 mm 0.00 in0.0 mm 0.00 in0.0 mm
10:10 AM 67.8°F19.9°C 64.4°F18.0°C 89% 3.4 mph SSE5.5 kmh SSE 4.9 mph7.9 kmh 30.22 in1023.4 mb 0.00 in0.0 mm 0.00 in0.0 mm 0.00 in0.0 mm
10:25 AM 68.2°F20.1°C 64.4°F18.0°C 88% 2.2 mph S3.5 kmh S 4.9 mph7.9 kmh 30.23 in1023.7 mb 0.00 in0.0 mm 0.00 in0.0 mm 0.00 in0.0 mm
10:40 AM 68.5°F20.3°C 64.6°F18.1°C 87% 1.6 mph SW2.6 kmh SW 7.6 mph12.2 kmh 30.23 in1023.7 mb 0.00 in0.0 mm 0.00 in0.0 mm 0.00 in0.0 mm
10:55 AM 68.5°F20.3°C 65.1°F18.4°C 89% 6.0 mph SE9.7 kmh SE 10.1 mph16.3 kmh 30.23 in1023.7 mb 0.00 in0.0 mm 0.00 in0.0 mm 0.00 in0.0 mm
11:10 AM 68.4°F20.2°C 65.3°F18.5°C 90% 4.7 mph ESE7.6 kmh ESE 10.1 mph16.3 kmh 30.23 in1023.7 mb 0.00 in0.0 mm 0.00 in0.0 mm 0.00 in0.0 mm
11:25 AM 68.2°F20.1°C 65.5°F18.6°C 91% 1.3 mph SE2.1 kmh SE 7.6 mph12.2 kmh 30.22 in1023.4 mb 0.00 in0.0 mm 0.00 in0.0 mm 0.00 in0.0 mm
11:40 AM 68.0°F20.0°C 65.3°F18.5°C 91% Calm Calm 7.6 mph12.2 kmh 30.22 in1023.4 mb 0.00 in0.0 mm 0.00 in0.0 mm 0.00 in0.0 mm
11:55 AM 68.0°F20.0°C 65.3°F18.5°C 91% 1.8 mph SE2.9 kmh SE 7.6 mph12.2 kmh 30.22 in1023.4 mb 0.00 in0.0 mm 0.00 in0.0 mm 0.00 in0.0 mm
12:11 PM 67.8°F19.9°C 65.5°F18.6°C 92% 1.8 mph ESE2.9 kmh ESE 7.6 mph12.2 kmh 30.21 in1023.0 mb 0.00 in0.0 mm 0.00 in0.0 mm 0.00 in0.0 mm
12:26 PM 67.6°F19.8°C 65.5°F18.6°C 93% 2.5 mph SE4.0 kmh SE 7.6 mph12.2 kmh 30.21 in1023.0 mb 0.00 in0.0 mm 0.00 in0.0 mm 0.00 in0.0 mm
12:41 PM 67.3°F19.6°C 65.5°F18.6°C 94% Calm Calm 7.6 mph12.2 kmh 30.20 in1022.7 mb 0.00 in0.0 mm 0.00 in0.0 mm 0.00 in0.0 mm
12:56 PM 67.1°F19.5°C 65.3°F18.5°C 94% Calm Calm 4.9 mph7.9 kmh 30.20 in1022.7 mb 0.00 in0.0 mm 0.00 in0.0 mm 0.00 in0.0 mm
01:11 PM 67.1°F19.5°C 65.7°F18.7°C 95% 0.7 mph SSW1.1 kmh SSW 4.9 mph7.9 kmh 30.20 in1022.7 mb 0.00 in0.0 mm 0.00 in0.0 mm 0.00 in0.0 mm
01:26 PM 67.3°F19.6°C 65.8°F18.8°C 95% Calm Calm 2.5 mph4.0 kmh 30.19 in1022.4 mb 0.02 in0.5 mm 0.08 in2.0 mm 0.02 in0.5 mm
01:41 PM 67.3°F19.6°C 65.8°F18.8°C 95% Calm Calm 2.5 mph4.0 kmh 30.18 in1022.0 mb 0.04 in1.0 mm 0.08 in2.0 mm 0.04 in1.0 mm
01:56 PM 67.5°F19.7°C 66.0°F18.9°C 95% Calm Calm 2.5 mph4.0 kmh 30.18 in1022.0 mb 0.05 in1.3 mm 0.04 in1.0 mm 0.05 in1.3 mm
02:11 PM 67.5°F19.7°C 66.0°F18.9°C 95% Calm Calm 2.5 mph4.0 kmh 30.18 in1022.0 mb 0.05 in1.3 mm 0.00 in0.0 mm 0.05 in1.3 mm
02:26 PM 67.5°F19.7°C 66.2°F19.0°C 96% Calm Calm 2.5 mph4.0 kmh 30.17 in1021.7 mb 0.05 in1.3 mm 0.00 in0.0 mm 0.07 in1.8 mm
02:41 PM 67.5°F19.7°C 66.2°F19.0°C 96% Calm Calm 4.9 mph7.9 kmh 30.17 in1021.7 mb 0.06 in1.5 mm 0.04 in1.0 mm 0.09 in2.3 mm
02:56 PM 67.5°F19.7°C 66.2°F19.0°C 96% Calm Calm 2.5 mph4.0 kmh 30.16 in1021.3 mb 0.05 in1.3 mm 0.00 in0.0 mm 0.09 in2.3 mm
03:12 PM 67.5°F19.7°C 66.2°F19.0°C 96% 2.2 mph SE3.5 kmh SE 4.9 mph7.9 kmh 30.16 in1021.3 mb 0.06 in1.5 mm 0.01 in0.3 mm 0.11 in2.8 mm
03:27 PM 67.3°F19.6°C 66.0°F18.9°C 96% Calm Calm 2.5 mph4.0 kmh 30.15 in1021.0 mb 0.04 in1.0 mm 0.00 in0.0 mm 0.11 in2.8 mm
03:42 PM 67.1°F19.5°C 66.2°F19.0°C 97% Calm Calm 2.5 mph4.0 kmh 30.15 in1021.0 mb 0.01 in0.3 mm 0.00 in0.0 mm 0.11 in2.8 mm
03:57 PM 67.1°F19.5°C 66.2°F19.0°C 97% Calm Calm 4.9 mph7.9 kmh 30.15 in1021.0 mb 0.02 in0.5 mm 0.04 in1.0 mm 0.12 in3.0 mm
04:12 PM 67.1°F19.5°C 66.2°F19.0°C 97% Calm Calm 4.9 mph7.9 kmh 30.15 in1021.0 mb 0.01 in0.3 mm 0.00 in0.0 mm 0.12 in3.0 mm
04:27 PM 67.1°F19.5°C 66.2°F19.0°C 97% Calm Calm 4.9 mph7.9 kmh 30.15 in1021.0 mb 0.01 in0.3 mm 0.00 in0.0 mm 0.12 in3.0 mm
04:42 PM 66.9°F19.4°C 66.0°F18.9°C 97% 1.3 mph ESE2.1 kmh ESE 4.9 mph7.9 kmh 30.15 in1021.0 mb 0.01 in0.3 mm 0.00 in0.0 mm 0.12 in3.0 mm
04:57 PM 67.1°F19.5°C 66.2°F19.0°C 97% Calm Calm 2.5 mph4.0 kmh 30.14 in1020.7 mb 0.00 in0.0 mm 0.00 in0.0 mm 0.12 in3.0 mm
05:12 PM 67.3°F19.6°C 66.4°F19.1°C 97% Calm Calm 4.9 mph7.9 kmh 30.14 in1020.7 mb 0.00 in0.0 mm 0.00 in0.0 mm 0.12 in3.0 mm
05:27 PM 67.3°F19.6°C 66.4°F19.1°C 97% 0.7 mph SSE1.1 kmh SSE 7.6 mph12.2 kmh 30.14 in1020.7 mb 0.00 in0.0 mm 0.00 in0.0 mm 0.12 in3.0 mm
05:42 PM 67.3°F19.6°C 66.4°F19.1°C 97% 1.3 mph SW2.1 kmh SW 4.9 mph7.9 kmh 30.14 in1020.7 mb 0.00 in0.0 mm 0.00 in0.0 mm 0.12 in3.0 mm
05:58 PM 67.1°F19.5°C 66.2°F19.0°C 97% 2.5 mph E4.0 kmh E 4.9 mph7.9 kmh 30.15 in1021.0 mb 0.00 in0.0 mm 0.00 in0.0 mm 0.12 in3.0 mm
06:13 PM 66.7°F19.3°C 65.5°F18.6°C 96% Calm Calm 4.9 mph7.9 kmh 30.14 in1020.7 mb 0.00 in0.0 mm 0.00 in0.0 mm 0.12 in3.0 mm
06:28 PM 66.9°F19.4°C 65.7°F18.7°C 96% Calm Calm -- 30.14 in1020.7 mb 0.00 in0.0 mm 0.00 in0.0 mm 0.12 in3.0 mm
06:43 PM 66.7°F19.3°C 65.5°F18.6°C 96% Calm Calm 2.5 mph4.0 kmh 30.15 in1021.0 mb 0.00 in0.0 mm 0.00 in0.0 mm 0.12 in3.0 mm
06:58 PM 66.6°F19.2°C 65.3°F18.5°C 96% Calm Calm -- 30.15 in1021.0 mb 0.00 in0.0 mm 0.00 in0.0 mm 0.12 in3.0 mm
07:13 PM 66.7°F19.3°C 65.5°F18.6°C 96% 0.9 mph SW1.4 kmh SW 2.5 mph4.0 kmh 30.14 in1020.7 mb 0.00 in0.0 mm 0.00 in0.0 mm 0.12 in3.0 mm
07:28 PM 66.6°F19.2°C 65.3°F18.5°C 96% 0.2 mph SSE0.3 kmh SSE 4.9 mph7.9 kmh 30.15 in1021.0 mb 0.00 in0.0 mm 0.00 in0.0 mm 0.12 in3.0 mm
07:43 PM 66.2°F19.0°C 64.9°F18.3°C 96% Calm Calm 2.5 mph4.0 kmh 30.15 in1021.0 mb 0.00 in0.0 mm 0.00 in0.0 mm 0.12 in3.0 mm
07:58 PM 65.8°F18.8°C 64.6°F18.1°C 96% Calm Calm -- 30.15 in1021.0 mb 0.00 in0.0 mm 0.00 in0.0 mm 0.12 in3.0 mm
08:13 PM 65.7°F18.7°C 64.4°F18.0°C 96% Calm Calm -- 30.16 in1021.3 mb 0.00 in0.0 mm 0.00 in0.0 mm 0.12 in3.0 mm
08:28 PM 65.7°F18.7°C 64.4°F18.0°C 96% Calm Calm 2.5 mph4.0 kmh 30.16 in1021.3 mb 0.00 in0.0 mm 0.00 in0.0 mm 0.12 in3.0 mm
08:44 PM 65.7°F18.7°C 64.4°F18.0°C 96% Calm Calm 2.5 mph4.0 kmh 30.17 in1021.7 mb 0.00 in0.0 mm 0.00 in0.0 mm 0.12 in3.0 mm
08:59 PM 65.3°F18.5°C 64.0°F17.8°C 96% Calm Calm 2.5 mph4.0 kmh 30.17 in1021.7 mb 0.00 in0.0 mm 0.00 in0.0 mm 0.12 in3.0 mm
09:14 PM 64.8°F18.2°C 63.7°F17.6°C 96% 2.2 mph N3.5 kmh N 4.9 mph7.9 kmh 30.17 in1021.7 mb 0.00 in0.0 mm 0.00 in0.0 mm 0.12 in3.0 mm
09:29 PM 63.9°F17.7°C 62.4°F16.9°C 95% 4.0 mph NW6.4 kmh NW 7.6 mph12.2 kmh 30.17 in1021.7 mb 0.00 in0.0 mm 0.00 in0.0 mm 0.12 in3.0 mm
09:44 PM 63.5°F17.5°C 61.5°F16.4°C 93% 2.5 mph NW4.0 kmh NW 7.6 mph12.2 kmh 30.17 in1021.7 mb 0.00 in0.0 mm 0.00 in0.0 mm 0.12 in3.0 mm
09:59 PM 63.5°F17.5°C 60.8°F16.0°C 91% 4.9 mph NW7.9 kmh NW 7.6 mph12.2 kmh 30.18 in1022.0 mb 0.00 in0.0 mm 0.00 in0.0 mm 0.12 in3.0 mm
10:14 PM 63.7°F17.6°C 60.6°F15.9°C 90% 1.8 mph NW2.9 kmh NW 7.6 mph12.2 kmh 30.18 in1022.0 mb 0.00 in0.0 mm 0.00 in0.0 mm 0.12 in3.0 mm
10:29 PM 63.7°F17.6°C 60.4°F15.8°C 89% 3.4 mph NNW5.5 kmh NNW -- 30.22 in1023.4 mb 0.00 in0.0 mm 0.00 in0.0 mm 0.12 in3.0 mm
10:44 PM 63.5°F17.5°C 60.8°F16.0°C 91% 3.8 mph NNW6.1 kmh NNW 7.6 mph12.2 kmh 30.18 in1022.0 mb 0.00 in0.0 mm 0.00 in0.0 mm 0.12 in3.0 mm
10:59 PM 63.1°F17.3°C 60.1°F15.6°C 90% 4.0 mph NNW6.4 kmh NNW 7.6 mph12.2 kmh 30.19 in1022.4 mb 0.00 in0.0 mm 0.00 in0.0 mm 0.12 in3.0 mm
11:14 PM 63.3°F17.4°C 60.3°F15.7°C 90% 3.4 mph NNW5.5 kmh NNW 7.6 mph12.2 kmh 30.19 in1022.4 mb 0.00 in0.0 mm 0.00 in0.0 mm 0.08 in2.0 mm
11:29 PM 63.5°F17.5°C 60.8°F16.0°C 91% 3.1 mph NNW5.0 kmh NNW 4.9 mph7.9 kmh 30.19 in1022.4 mb 0.00 in0.0 mm 0.00 in0.0 mm 0.08 in2.0 mm
11:44 PM 63.5°F17.5°C 60.3°F15.7°C 89% 3.4 mph NNW5.5 kmh NNW 7.6 mph12.2 kmh 30.19 in1022.4 mb 0.00 in0.0 mm 0.00 in0.0 mm 0.08 in2.0 mm
11:59 PM 63.5°F17.5°C 60.3°F15.7°C 89% 2.9 mph NNW4.7 kmh NNW 7.6 mph12.2 kmh 30.18 in1022.0 mb 0.00 in0.0 mm 0.00 in0.0 mm 0.08 in2.0 mm